createdAt,value
2022-10-03T00:00:39.659Z,60.26
2022-10-03T00:01:39.870Z,60.91
2022-10-03T00:02:39.663Z,63.33
2022-10-03T00:03:39.590Z,55.11
2022-10-03T00:04:39.586Z,65.74
2022-10-03T00:05:39.571Z,70.58
2022-10-03T00:06:39.588Z,67.03
2022-10-03T00:07:39.547Z,65.26
2022-10-03T00:08:39.510Z,62.20
2022-10-03T00:09:39.524Z,65.58
2022-10-03T00:10:39.484Z,64.29
2022-10-03T00:11:39.738Z,65.26
2022-10-03T00:12:39.461Z,63.65
2022-10-03T00:13:39.445Z,64.13
2022-10-03T00:14:39.416Z,64.13
2022-10-03T00:15:39.506Z,58.49
2022-10-03T00:16:39.418Z,64.29
2022-10-03T00:17:39.373Z,63.16
2022-10-03T00:18:39.368Z,62.36
2022-10-03T00:19:39.362Z,59.78
2022-10-03T00:20:39.330Z,66.71
2022-10-03T00:21:39.514Z,61.87
2022-10-03T00:22:39.305Z,64.29
2022-10-03T00:23:39.263Z,61.39
2022-10-03T00:24:39.272Z,59.14
2022-10-03T00:25:39.241Z,63.00
2022-10-03T00:26:39.259Z,62.68
2022-10-03T00:27:39.227Z,66.06
2022-10-03T00:28:39.183Z,65.74
2022-10-03T00:29:39.188Z,61.07
2022-10-03T00:30:39.174Z,64.78
2022-10-03T00:31:39.577Z,65.10
2022-10-03T00:32:39.116Z,63.00
2022-10-03T00:33:39.110Z,67.19
2022-10-03T00:34:39.094Z,63.81
2022-10-03T00:35:39.076Z,59.14
2022-10-03T00:36:39.114Z,64.94
2022-10-03T00:37:39.049Z,66.23
2022-10-03T00:38:39.018Z,67.51
2022-10-03T00:39:39.014Z,64.61
2022-10-03T00:40:38.980Z,62.68
2022-10-03T00:41:39.245Z,66.87
2022-10-03T00:42:38.947Z,63.81
2022-10-03T00:43:38.945Z,64.78
2022-10-03T00:44:38.932Z,61.39
2022-10-03T00:45:38.916Z,62.68
2022-10-03T00:46:38.949Z,66.55
2022-10-03T00:47:38.860Z,66.87
2022-10-03T00:48:38.854Z,62.20
2022-10-03T00:49:38.844Z,63.97
2022-10-03T00:50:38.823Z,64.29
2022-10-03T00:51:39.097Z,63.33
2022-10-03T00:52:38.800Z,62.04
2022-10-03T00:53:38.796Z,63.00
2022-10-03T00:54:38.749Z,53.98
2022-10-03T00:55:38.748Z,56.88
2022-10-03T00:56:38.746Z,67.35
2022-10-03T00:57:38.730Z,62.68
2022-10-03T00:58:38.687Z,64.78
2022-10-03T00:59:38.674Z,60.91
2022-10-03T01:00:38.697Z,64.61
2022-10-03T01:01:38.960Z,64.78
2022-10-03T01:02:38.683Z,58.01
2022-10-03T01:03:38.662Z,64.29
2022-10-03T01:04:38.599Z,62.52
2022-10-03T01:05:38.565Z,68.16
2022-10-03T01:06:38.579Z,63.81
2022-10-03T01:07:38.537Z,63.97
2022-10-03T01:08:38.527Z,62.52
2022-10-03T01:09:38.547Z,64.29
2022-10-03T01:10:38.507Z,65.10
2022-10-03T01:11:38.792Z,66.06
2022-10-03T01:12:38.458Z,63.65
2022-10-03T01:13:38.441Z,65.58
2022-10-03T01:14:38.428Z,61.23
2022-10-03T01:15:38.502Z,67.03
2022-10-03T01:16:38.431Z,69.13
2022-10-03T01:17:38.377Z,63.00
2022-10-03T01:18:38.372Z,66.06
2022-10-03T01:19:38.334Z,66.23
2022-10-03T01:20:38.319Z,63.49
2022-10-03T01:21:38.574Z,60.42
2022-10-03T01:22:38.285Z,62.20
2022-10-03T01:23:38.293Z,60.75
2022-10-03T01:24:38.247Z,65.10
2022-10-03T01:25:38.243Z,54.14
2022-10-03T01:26:38.250Z,65.10
2022-10-03T01:27:38.207Z,58.81
2022-10-03T01:28:38.177Z,62.52
2022-10-03T01:29:38.172Z,61.07
2022-10-03T01:30:38.143Z,64.78
2022-10-03T01:31:38.450Z,65.58
2022-10-03T01:32:38.124Z,63.97
2022-10-03T01:33:38.094Z,67.03
2022-10-03T01:34:38.101Z,66.06
2022-10-03T01:35:38.054Z,63.16
2022-10-03T01:36:38.070Z,64.29
2022-10-03T01:37:38.028Z,62.52
2022-10-03T01:38:38.035Z,64.13
2022-10-03T01:39:38.004Z,62.52
2022-10-03T01:40:38.007Z,62.20
2022-10-03T01:41:38.219Z,60.59
2022-10-03T01:42:37.956Z,66.71
2022-10-03T01:43:37.933Z,66.06
2022-10-03T01:44:37.920Z,60.59
2022-10-03T01:45:37.914Z,64.61
2022-10-03T01:46:37.942Z,63.65
2022-10-03T01:47:37.877Z,60.26
2022-10-03T01:48:37.849Z,57.04
2022-10-03T01:49:37.835Z,63.65
2022-10-03T01:50:37.887Z,63.65
2022-10-03T01:51:37.983Z,67.03
2022-10-03T01:52:37.784Z,64.78
2022-10-03T01:53:37.779Z,63.00
2022-10-03T01:54:37.764Z,62.52
2022-10-03T01:55:37.781Z,61.71
2022-10-03T01:56:37.788Z,61.23
2022-10-03T01:57:37.711Z,63.16
2022-10-03T01:58:37.674Z,59.94
2022-10-03T01:59:37.775Z,65.58
2022-10-03T02:00:37.707Z,61.71
2022-10-03T02:01:37.992Z,60.59
2022-10-03T02:02:37.621Z,62.84
2022-10-03T02:03:37.590Z,65.10
2022-10-03T02:04:37.569Z,60.91
2022-10-03T02:05:37.558Z,60.10
2022-10-03T02:06:37.593Z,63.33
2022-10-03T02:07:37.516Z,62.52
2022-10-03T02:08:37.529Z,63.49
2022-10-03T02:09:37.501Z,62.36
2022-10-03T02:10:37.507Z,60.42
2022-10-03T02:11:37.688Z,59.14
2022-10-03T02:12:37.500Z,61.07
2022-10-03T02:13:37.421Z,55.27
2022-10-03T02:14:37.467Z,63.81
2022-10-03T02:15:37.766Z,65.58
2022-10-03T02:16:37.492Z,60.59
2022-10-03T02:17:37.373Z,63.97
2022-10-03T02:18:37.339Z,61.55
2022-10-03T02:19:37.321Z,64.94
2022-10-03T02:20:37.305Z,62.36
2022-10-03T02:21:37.564Z,64.94
2022-10-03T02:22:37.276Z,64.13
2022-10-03T02:23:37.268Z,64.94
2022-10-03T02:24:37.258Z,63.97
2022-10-03T02:25:38.243Z,62.36
2022-10-03T02:26:37.233Z,61.71
2022-10-03T02:27:37.191Z,64.78
2022-10-03T02:28:37.191Z,61.55
2022-10-03T02:29:37.173Z,60.75
2022-10-03T02:30:37.162Z,65.10
2022-10-03T02:31:37.608Z,61.87
2022-10-03T02:32:37.117Z,63.81
2022-10-03T02:33:37.121Z,61.39
2022-10-03T02:34:37.081Z,62.52
2022-10-03T02:35:37.081Z,63.16
2022-10-03T02:36:37.087Z,60.10
2022-10-03T02:37:37.037Z,60.75
2022-10-03T02:38:37.025Z,60.42
2022-10-03T02:39:37.010Z,58.17
2022-10-03T02:40:36.971Z,60.42
2022-10-03T02:41:37.319Z,62.04
2022-10-03T02:42:36.941Z,63.97
2022-10-03T02:43:37.014Z,61.39
2022-10-03T02:44:36.904Z,62.52
2022-10-03T02:45:36.978Z,61.23
2022-10-03T02:46:36.908Z,61.87
2022-10-03T02:47:36.880Z,64.61
2022-10-03T02:48:36.852Z,63.65
2022-10-03T02:49:36.829Z,63.97
2022-10-03T02:50:36.811Z,65.10
2022-10-03T02:51:37.169Z,62.68
2022-10-03T02:52:36.790Z,60.75
2022-10-03T02:53:36.800Z,63.97
2022-10-03T02:54:36.734Z,61.55
2022-10-03T02:55:36.731Z,62.04
2022-10-03T02:56:36.746Z,68.64
2022-10-03T02:57:36.677Z,62.36
2022-10-03T02:58:36.678Z,63.16
2022-10-03T02:59:36.652Z,66.87
2022-10-03T03:00:36.694Z,62.84
2022-10-03T03:01:37.009Z,65.10
2022-10-03T03:02:36.648Z,62.84
2022-10-03T03:03:36.593Z,63.65
2022-10-03T03:04:36.582Z,64.61
2022-10-03T03:05:36.634Z,60.26
2022-10-03T03:06:36.540Z,61.07
2022-10-03T03:07:36.534Z,64.78
2022-10-03T03:08:36.507Z,64.94
2022-10-03T03:09:36.542Z,60.42
2022-10-03T03:10:36.506Z,62.68
2022-10-03T03:11:36.803Z,67.84
2022-10-03T03:12:41.073Z,64.29
2022-10-03T03:13:38.432Z,60.42
2022-10-03T03:14:36.405Z,59.78
2022-10-03T03:15:36.409Z,65.10
2022-10-03T03:16:36.500Z,64.45
2022-10-03T03:17:36.357Z,61.07
2022-10-03T03:18:36.335Z,62.20
2022-10-03T03:19:36.327Z,64.61
2022-10-03T03:20:36.321Z,67.19
2022-10-03T03:21:36.315Z,64.29
2022-10-03T03:22:36.264Z,64.61
2022-10-03T03:23:36.267Z,68.96
2022-10-03T03:24:36.239Z,64.45
2022-10-03T03:25:36.215Z,63.00
2022-10-03T03:26:36.225Z,61.39
2022-10-03T03:27:36.187Z,67.84
2022-10-03T03:28:36.181Z,61.55
2022-10-03T03:29:36.147Z,62.68
2022-10-03T03:30:36.141Z,65.74
2022-10-03T03:31:36.218Z,63.81
2022-10-03T03:32:36.114Z,62.52
2022-10-03T03:33:36.102Z,58.81
2022-10-03T03:34:36.087Z,64.94
2022-10-03T03:35:36.046Z,66.87
2022-10-03T03:36:36.073Z,62.52
2022-10-03T03:37:36.008Z,61.71
2022-10-03T03:38:36.009Z,60.26
2022-10-03T03:39:35.997Z,64.78
2022-10-03T03:40:35.958Z,60.75
2022-10-03T03:41:36.009Z,61.39
2022-10-03T03:42:35.938Z,64.13
2022-10-03T03:43:35.940Z,64.61
2022-10-03T03:44:35.914Z,60.75
2022-10-03T03:45:35.946Z,66.39
2022-10-03T03:46:35.906Z,64.61
2022-10-03T03:47:35.858Z,64.94
2022-10-03T03:48:35.827Z,63.00
2022-10-03T03:49:35.831Z,65.26
2022-10-03T03:50:35.838Z,62.04
2022-10-03T03:51:35.930Z,63.97
2022-10-03T03:52:35.779Z,65.26
2022-10-03T03:53:35.759Z,61.07
2022-10-03T03:54:35.732Z,64.94
2022-10-03T03:55:35.749Z,65.90
2022-10-03T03:56:35.687Z,63.81
2022-10-03T03:57:36.690Z,64.78
2022-10-03T03:58:35.672Z,64.13
2022-10-03T03:59:35.657Z,61.07
2022-10-03T04:00:35.686Z,64.61
2022-10-03T04:01:35.673Z,64.94
2022-10-03T04:02:35.600Z,66.71
2022-10-03T04:03:35.572Z,63.49
2022-10-03T04:04:35.560Z,64.13
2022-10-03T04:05:35.580Z,60.42
2022-10-03T04:06:35.521Z,63.00
2022-10-03T04:07:35.496Z,63.00
2022-10-03T04:08:35.480Z,64.61
2022-10-03T04:09:35.479Z,68.16
2022-10-03T04:10:35.449Z,66.39
2022-10-03T04:11:35.457Z,67.03
2022-10-03T04:12:35.413Z,66.06
2022-10-03T04:13:35.408Z,63.81
2022-10-03T04:14:35.368Z,66.55
2022-10-03T04:15:35.369Z,63.81
2022-10-03T04:16:35.408Z,65.26
2022-10-03T04:17:35.332Z,65.42
2022-10-03T04:18:35.335Z,61.71
2022-10-03T04:19:35.295Z,63.16
2022-10-03T04:20:35.281Z,65.90
2022-10-03T04:21:35.309Z,64.78
2022-10-03T04:22:35.259Z,63.97
2022-10-03T04:23:35.235Z,62.36
2022-10-03T04:24:35.227Z,66.06
2022-10-03T04:25:35.202Z,64.45
2022-10-03T04:26:35.218Z,64.13
2022-10-03T04:27:35.191Z,58.17
2022-10-03T04:28:35.162Z,63.97
2022-10-03T04:29:35.165Z,64.45
2022-10-03T04:30:35.123Z,64.13
2022-10-03T04:31:35.168Z,63.16
2022-10-03T04:32:35.094Z,65.10
2022-10-03T04:33:35.049Z,64.78
2022-10-03T04:34:35.049Z,66.39
2022-10-03T04:35:35.045Z,64.61
2022-10-03T04:36:35.062Z,66.87
2022-10-03T04:37:34.986Z,64.45
2022-10-03T04:38:34.981Z,66.06
2022-10-03T04:39:34.973Z,64.94
2022-10-03T04:40:34.941Z,64.94
2022-10-03T04:41:34.961Z,65.74
2022-10-03T04:42:34.921Z,62.04
2022-10-03T04:43:34.933Z,64.29
2022-10-03T04:44:34.882Z,67.84
2022-10-03T04:45:34.911Z,64.13
2022-10-03T04:46:34.886Z,65.90
2022-10-03T04:47:34.832Z,65.26
2022-10-03T04:48:34.834Z,66.06
2022-10-03T04:49:34.792Z,63.16
2022-10-03T04:50:34.788Z,63.97
2022-10-03T04:51:34.810Z,65.42
2022-10-03T04:52:34.758Z,65.10
2022-10-03T04:53:34.732Z,64.29
2022-10-03T04:54:34.723Z,68.48
2022-10-03T04:55:34.767Z,69.29
2022-10-03T04:56:34.688Z,67.19
2022-10-03T04:57:34.667Z,66.71
2022-10-03T04:58:34.641Z,65.10
2022-10-03T04:59:34.653Z,66.55
2022-10-03T05:00:34.630Z,63.81
2022-10-03T05:01:34.618Z,64.61
2022-10-03T05:02:34.604Z,67.03
2022-10-03T05:03:34.558Z,65.58
2022-10-03T05:04:34.571Z,64.29
2022-10-03T05:05:34.548Z,65.26
2022-10-03T05:06:34.513Z,66.71
2022-10-03T05:07:34.499Z,67.35
2022-10-03T05:08:34.516Z,66.06
2022-10-03T05:09:34.473Z,65.42
2022-10-03T05:10:34.479Z,66.23
2022-10-03T05:11:34.430Z,65.26
2022-10-03T05:12:34.407Z,67.03
2022-10-03T05:13:34.401Z,65.10
2022-10-03T05:14:34.393Z,66.87
2022-10-03T05:15:34.456Z,67.51
2022-10-03T05:16:34.434Z,65.58
2022-10-03T05:17:34.334Z,65.42
2022-10-03T05:18:34.340Z,65.42
2022-10-03T05:19:34.313Z,66.06
2022-10-03T05:20:34.328Z,64.61
2022-10-03T05:21:34.314Z,65.10
2022-10-03T05:22:34.246Z,63.81
2022-10-03T05:23:34.244Z,67.35
2022-10-03T05:24:34.247Z,68.32
2022-10-03T05:25:34.318Z,66.06
2022-10-03T05:26:45.216Z,68.80
2022-10-03T05:27:36.169Z,63.97
2022-10-03T05:28:34.202Z,67.84
2022-10-03T05:29:34.137Z,65.90
2022-10-03T05:30:34.157Z,66.87
2022-10-03T05:31:34.134Z,67.35
2022-10-03T05:32:34.073Z,65.42
2022-10-03T05:33:34.063Z,66.55
2022-10-03T05:34:34.082Z,65.42
2022-10-03T05:35:34.052Z,66.39
2022-10-03T05:36:33.998Z,67.84
2022-10-03T05:37:33.994Z,66.87
2022-10-03T05:38:33.981Z,66.55
2022-10-03T05:39:33.965Z,66.23
2022-10-03T05:40:34.005Z,68.96
2022-10-03T05:41:33.938Z,67.84
2022-10-03T05:42:33.917Z,66.55
2022-10-03T05:43:33.897Z,65.74
2022-10-03T05:44:33.888Z,65.90
2022-10-03T05:45:33.930Z,65.58
2022-10-03T05:46:33.847Z,66.87
2022-10-03T05:47:33.822Z,67.84
2022-10-03T05:48:33.810Z,68.80
2022-10-03T05:49:33.777Z,68.80
2022-10-03T05:50:33.796Z,68.48
2022-10-03T05:51:33.750Z,65.42
2022-10-03T05:52:33.757Z,64.94
2022-10-03T05:53:33.730Z,68.00
2022-10-03T05:54:33.708Z,65.10
2022-10-03T05:55:33.730Z,64.45
2022-10-03T05:56:37.649Z,66.55
2022-10-03T05:57:34.649Z,68.64
2022-10-03T05:58:33.639Z,65.74
2022-10-03T05:59:33.632Z,66.06
2022-10-03T06:00:33.652Z,67.51
2022-10-03T06:01:33.598Z,66.23
2022-10-03T06:02:33.685Z,68.32
2022-10-03T06:03:33.602Z,65.26
2022-10-03T06:04:33.535Z,67.35
2022-10-03T06:05:33.562Z,66.71
2022-10-03T06:06:33.491Z,66.71
2022-10-03T06:07:33.477Z,68.32
2022-10-03T06:08:33.491Z,65.26
2022-10-03T06:09:33.466Z,67.19
2022-10-03T06:10:33.462Z,66.71
2022-10-03T06:11:33.429Z,65.10
2022-10-03T06:12:33.423Z,65.42
2022-10-03T06:13:33.382Z,67.51
2022-10-03T06:14:33.344Z,66.06
2022-10-03T06:15:33.401Z,66.71
2022-10-03T06:16:33.342Z,67.68
2022-10-03T06:17:33.312Z,66.23
2022-10-03T06:18:33.295Z,67.68
2022-10-03T06:19:33.274Z,66.39
2022-10-03T06:20:33.298Z,67.19
2022-10-03T06:21:33.246Z,67.03
2022-10-03T06:22:33.249Z,64.78
2022-10-03T06:23:33.257Z,68.32
2022-10-03T06:24:34.179Z,66.39
2022-10-03T06:25:33.212Z,65.58
2022-10-03T06:26:33.156Z,67.19
2022-10-03T06:27:33.132Z,66.39
2022-10-03T06:28:33.186Z,66.87
2022-10-03T06:29:33.125Z,69.77
2022-10-03T06:30:33.148Z,68.32
2022-10-03T06:31:33.083Z,68.16
2022-10-03T06:32:33.091Z,66.55
2022-10-03T06:33:33.124Z,69.45
2022-10-03T06:34:33.071Z,68.16
2022-10-03T06:35:33.035Z,65.74
2022-10-03T06:36:32.980Z,65.42
2022-10-03T06:37:32.971Z,68.80
2022-10-03T06:38:32.953Z,65.58
2022-10-03T06:39:32.936Z,65.26
2022-10-03T06:40:32.948Z,66.87
2022-10-03T06:41:32.901Z,68.32
2022-10-03T06:42:33.884Z,68.48
2022-10-03T06:43:32.881Z,65.74
2022-10-03T06:44:32.839Z,66.23
2022-10-03T06:45:32.888Z,66.87
2022-10-03T06:46:32.967Z,67.19
2022-10-03T06:47:32.797Z,68.96
2022-10-03T06:48:32.788Z,67.03
2022-10-03T06:49:32.768Z,66.06
2022-10-03T06:50:32.773Z,67.03
2022-10-03T06:51:32.763Z,68.48
2022-10-03T06:52:32.713Z,67.19
2022-10-03T06:53:32.723Z,67.68
2022-10-03T06:54:32.703Z,68.00
2022-10-03T06:55:32.697Z,67.35
2022-10-03T06:56:32.661Z,68.64
2022-10-03T06:57:32.671Z,68.32
2022-10-03T06:58:32.612Z,68.32
2022-10-03T06:59:32.609Z,67.35
2022-10-03T07:00:32.637Z,68.16
2022-10-03T07:01:32.643Z,69.45
2022-10-03T07:02:32.583Z,65.74
2022-10-03T07:03:32.581Z,68.00
2022-10-03T07:04:32.550Z,67.35
2022-10-03T07:05:32.523Z,67.35
2022-10-03T07:06:32.497Z,70.74
2022-10-03T07:07:32.516Z,68.80
2022-10-03T07:08:32.467Z,66.71
2022-10-03T07:09:32.426Z,69.45
2022-10-03T07:10:32.444Z,66.23
2022-10-03T07:11:32.396Z,67.19
2022-10-03T07:12:32.391Z,65.42
2022-10-03T07:13:32.349Z,68.48
2022-10-03T07:14:32.352Z,68.32
2022-10-03T07:15:59.140Z,66.71
2022-10-03T07:16:34.400Z,65.90
2022-10-03T07:17:32.287Z,69.45
2022-10-03T07:18:32.282Z,68.00
2022-10-03T07:19:32.258Z,66.23
2022-10-03T07:20:32.269Z,70.74
2022-10-03T07:21:32.233Z,66.06
2022-10-03T07:22:32.220Z,68.16
2022-10-03T07:23:32.209Z,70.09
2022-10-03T07:24:32.185Z,68.64
2022-10-03T07:25:32.204Z,69.77
2022-10-03T07:26:32.129Z,67.35
2022-10-03T07:27:32.135Z,66.87
2022-10-03T07:28:32.168Z,66.23
2022-10-03T07:29:32.089Z,68.32
2022-10-03T07:30:32.109Z,69.29
2022-10-03T07:31:32.156Z,68.32
2022-10-03T07:32:32.042Z,70.58
2022-10-03T07:33:36.633Z,70.74
2022-10-03T07:34:33.000Z,68.64
2022-10-03T07:35:32.047Z,65.58
2022-10-03T07:36:32.011Z,68.16
2022-10-03T07:37:31.968Z,69.13
2022-10-03T07:38:32.958Z,68.80
2022-10-03T07:39:31.928Z,70.90
2022-10-03T07:40:31.944Z,69.61
2022-10-03T07:41:31.893Z,68.32
2022-10-03T07:42:31.947Z,66.71
2022-10-03T07:43:31.880Z,68.32
2022-10-03T07:44:31.839Z,68.00
2022-10-03T07:45:31.862Z,68.00
2022-10-03T07:46:31.880Z,67.68
2022-10-03T07:47:31.806Z,66.87
2022-10-03T07:48:31.773Z,68.64
2022-10-03T07:49:31.749Z,69.61
2022-10-03T07:50:31.761Z,69.77
2022-10-03T07:51:31.707Z,69.77
2022-10-03T07:52:31.702Z,68.16
2022-10-03T07:53:31.718Z,68.32
2022-10-03T07:54:31.677Z,67.68
2022-10-03T07:55:31.718Z,68.32
2022-10-03T07:56:31.637Z,68.32
2022-10-03T07:57:31.623Z,69.13
2022-10-03T07:58:31.597Z,70.42
2022-10-03T07:59:31.594Z,67.68
2022-10-03T08:00:31.608Z,66.55
2022-10-03T08:01:31.558Z,68.48
2022-10-03T08:02:31.555Z,66.55
2022-10-03T08:03:31.602Z,68.00
2022-10-03T08:04:31.519Z,67.84
2022-10-03T08:05:31.515Z,69.29
2022-10-03T08:06:31.474Z,68.80
2022-10-03T08:07:31.453Z,67.19
2022-10-03T08:08:31.473Z,67.35
2022-10-03T08:09:31.410Z,69.29
2022-10-03T08:10:31.486Z,72.03
2022-10-03T08:11:31.380Z,68.16
2022-10-03T08:12:32.367Z,69.13
2022-10-03T08:13:31.352Z,68.48
2022-10-03T08:14:31.330Z,67.35
2022-10-03T08:15:31.419Z,68.96
2022-10-03T08:16:31.291Z,70.09
2022-10-03T08:17:31.272Z,68.96
2022-10-03T08:18:31.270Z,68.80
2022-10-03T08:19:31.287Z,69.45
2022-10-03T08:20:32.272Z,68.80
2022-10-03T08:21:31.236Z,67.35
2022-10-03T08:22:31.211Z,68.64
2022-10-03T08:23:31.231Z,70.42
2022-10-03T08:24:31.166Z,68.16
2022-10-03T08:25:31.191Z,68.48
2022-10-03T08:26:31.132Z,68.48
2022-10-03T08:27:31.147Z,68.00
2022-10-03T08:28:31.174Z,70.09
2022-10-03T08:29:31.090Z,68.48
2022-10-03T08:30:31.102Z,68.64
2022-10-03T08:31:31.108Z,68.96
2022-10-03T08:32:31.034Z,69.77
2022-10-03T08:33:31.031Z,69.45
2022-10-03T08:34:31.015Z,69.61
2022-10-03T08:35:31.028Z,68.32
2022-10-03T08:36:30.991Z,69.61
2022-10-03T08:37:30.951Z,69.13
2022-10-03T08:38:30.930Z,69.13
2022-10-03T08:39:30.921Z,67.03
2022-10-03T08:40:30.923Z,75.89
2022-10-03T08:41:30.879Z,70.74
2022-10-03T08:42:30.874Z,68.80
2022-10-03T08:43:30.866Z,68.80
2022-10-03T08:44:30.857Z,69.77
2022-10-03T08:45:30.854Z,69.61
2022-10-03T08:46:30.940Z,67.84
2022-10-03T08:47:30.800Z,68.64
2022-10-03T08:48:30.756Z,69.29
2022-10-03T08:49:30.742Z,68.80
2022-10-03T08:50:30.770Z,69.61
2022-10-03T08:51:30.718Z,67.51
2022-10-03T08:52:30.702Z,68.00
2022-10-03T08:53:30.679Z,69.77
2022-10-03T08:54:30.654Z,68.48
2022-10-03T08:55:30.682Z,68.00
2022-10-03T08:56:30.708Z,68.80
2022-10-03T08:57:30.600Z,68.32
2022-10-03T08:58:30.594Z,67.51
2022-10-03T08:59:30.597Z,69.61
2022-10-03T09:00:30.592Z,70.09
2022-10-03T09:01:30.661Z,69.45
2022-10-03T09:02:30.654Z,70.74
2022-10-03T09:03:38.149Z,70.25
2022-10-03T09:04:32.501Z,68.32
2022-10-03T09:05:30.520Z,68.32
2022-10-03T09:06:30.464Z,69.13
2022-10-03T09:07:30.442Z,68.96
2022-10-03T09:08:30.428Z,70.90
2022-10-03T09:09:35.654Z,68.96
2022-10-03T09:10:32.451Z,67.84
2022-10-03T09:11:30.395Z,68.32
2022-10-03T09:12:31.365Z,68.00
2022-10-03T09:13:30.329Z,68.96
2022-10-03T09:14:30.351Z,69.29
2022-10-03T09:15:30.342Z,68.00
2022-10-03T09:16:30.343Z,69.45
2022-10-03T09:17:30.275Z,68.64
2022-10-03T09:18:30.269Z,68.80
2022-10-03T09:19:30.251Z,67.51
2022-10-03T09:20:30.266Z,68.32
2022-10-03T09:21:32.610Z,67.84
2022-10-03T09:22:32.217Z,68.80
2022-10-03T09:23:30.176Z,68.32
2022-10-03T09:24:30.200Z,68.32
2022-10-03T09:25:30.193Z,68.80
2022-10-03T09:26:30.165Z,68.64
2022-10-03T09:27:30.116Z,68.96
2022-10-03T09:28:30.149Z,68.96
2022-10-03T09:29:30.096Z,68.80
2022-10-03T09:30:30.086Z,68.32
2022-10-03T09:31:30.193Z,69.77
2022-10-03T09:32:30.036Z,71.22
2022-10-03T09:33:30.025Z,68.00
2022-10-03T09:34:30.036Z,68.80
2022-10-03T09:35:30.024Z,69.61
2022-10-03T09:36:29.969Z,67.35
2022-10-03T09:37:29.961Z,67.51
2022-10-03T09:38:29.916Z,68.80
2022-10-03T09:39:29.918Z,67.51
2022-10-03T09:40:29.941Z,69.13
2022-10-03T09:41:29.871Z,68.80
2022-10-03T09:42:29.892Z,68.32
2022-10-03T09:43:29.849Z,68.96
2022-10-03T09:44:29.875Z,69.13
2022-10-03T09:45:29.824Z,68.48
2022-10-03T09:46:29.925Z,66.55
2022-10-03T09:47:29.795Z,68.00
2022-10-03T09:48:29.775Z,68.16
2022-10-03T09:49:29.743Z,67.84
2022-10-03T09:50:29.720Z,67.84
2022-10-03T09:51:29.752Z,68.32
2022-10-03T09:52:29.710Z,68.64
2022-10-03T09:53:29.689Z,68.00
2022-10-03T09:54:29.716Z,72.99
2022-10-03T09:55:29.642Z,68.00
2022-10-03T09:56:29.643Z,69.61
2022-10-03T09:57:29.603Z,69.13
2022-10-03T09:58:29.668Z,67.51
2022-10-03T09:59:29.567Z,69.13
2022-10-03T10:00:29.580Z,67.51
2022-10-03T10:01:29.560Z,66.71
2022-10-03T10:02:29.527Z,68.32
2022-10-03T10:03:29.525Z,65.42
2022-10-03T10:04:53.019Z,67.19
2022-10-03T10:05:31.518Z,66.71
2022-10-03T10:06:29.467Z,66.39
2022-10-03T10:07:29.492Z,67.03
2022-10-03T10:08:29.430Z,67.68
2022-10-03T10:09:29.412Z,66.71
2022-10-03T10:10:29.429Z,67.68
2022-10-03T10:11:32.992Z,68.80
2022-10-03T10:12:31.345Z,67.84
2022-10-03T10:13:44.223Z,68.64
2022-10-03T10:14:31.333Z,68.80
2022-10-03T10:15:29.323Z,67.84
2022-10-03T10:16:29.329Z,67.84
2022-10-03T10:17:29.284Z,69.13
2022-10-03T10:18:29.255Z,67.35
2022-10-03T10:19:29.283Z,69.13
2022-10-03T10:20:29.250Z,65.90
2022-10-03T10:21:30.208Z,67.51
2022-10-03T10:22:29.197Z,66.71
2022-10-03T10:23:29.172Z,67.51
2022-10-03T10:24:30.160Z,67.19
2022-10-03T10:25:29.166Z,66.71
2022-10-03T10:26:29.565Z,69.45
2022-10-03T10:27:30.093Z,65.90
2022-10-03T10:28:29.145Z,64.94
2022-10-03T10:29:29.052Z,69.13
2022-10-03T10:30:29.088Z,65.58
2022-10-03T10:31:29.118Z,66.55
2022-10-03T10:32:29.010Z,65.90
2022-10-03T10:33:28.987Z,66.39
2022-10-03T10:34:28.981Z,67.35
2022-10-03T10:35:28.947Z,67.03
2022-10-03T10:36:28.972Z,67.51
2022-10-03T10:37:28.918Z,66.06
2022-10-03T10:38:28.917Z,67.68
2022-10-03T10:39:28.880Z,67.84
2022-10-03T10:40:28.909Z,67.19
2022-10-03T10:41:28.863Z,67.51
2022-10-03T10:42:28.844Z,67.68
2022-10-03T10:43:28.829Z,65.10
2022-10-03T10:44:28.856Z,63.97
2022-10-03T10:45:28.944Z,65.90
2022-10-03T10:46:28.866Z,66.87
2022-10-03T10:47:28.764Z,66.87
2022-10-03T10:48:28.760Z,65.90
2022-10-03T10:49:28.733Z,67.19
2022-10-03T10:50:28.748Z,65.90
2022-10-03T10:51:28.702Z,65.58
2022-10-03T10:52:28.682Z,66.06
2022-10-03T10:53:28.682Z,65.26
2022-10-03T10:54:28.647Z,66.23
2022-10-03T10:55:28.626Z,66.39
2022-10-03T10:56:28.656Z,65.42
2022-10-03T10:57:28.588Z,64.94
2022-10-03T10:58:28.589Z,65.26
2022-10-03T10:59:28.575Z,63.65
2022-10-03T11:00:28.583Z,64.61
2022-10-03T11:01:28.639Z,64.94
2022-10-03T11:02:28.571Z,64.78
2022-10-03T11:03:28.519Z,66.71
2022-10-03T11:04:28.544Z,65.58
2022-10-03T11:05:28.481Z,65.42
2022-10-03T11:06:28.487Z,65.90
2022-10-03T11:07:28.452Z,68.32
2022-10-03T11:08:28.425Z,74.44
2022-10-03T11:09:28.433Z,66.23
2022-10-03T11:10:28.405Z,62.20
2022-10-03T11:11:28.408Z,66.71
2022-10-03T11:12:28.363Z,63.81
2022-10-03T11:13:32.197Z,63.49
2022-10-03T11:14:29.339Z,63.81
2022-10-03T11:15:28.338Z,65.90
2022-10-03T11:16:28.388Z,67.03
2022-10-03T11:17:29.270Z,66.39
2022-10-03T11:18:28.262Z,64.61
2022-10-03T11:19:28.228Z,64.29
2022-10-03T11:20:28.222Z,65.10
2022-10-03T11:21:28.232Z,65.74
2022-10-03T11:22:28.193Z,68.00
2022-10-03T11:23:28.185Z,64.78
2022-10-03T11:24:28.148Z,66.39
2022-10-03T11:25:28.150Z,64.45
2022-10-03T11:26:28.157Z,65.74
2022-10-03T11:27:28.108Z,66.71
2022-10-03T11:28:28.112Z,67.19
2022-10-03T11:29:28.074Z,66.23
2022-10-03T11:30:28.072Z,65.10
2022-10-03T11:31:28.131Z,67.19
2022-10-03T11:32:28.031Z,67.03
2022-10-03T11:33:28.011Z,65.74
2022-10-03T11:34:28.069Z,65.74
2022-10-03T11:35:28.029Z,65.42
2022-10-03T11:36:27.986Z,67.19
2022-10-03T11:37:27.938Z,66.87
2022-10-03T11:38:27.978Z,66.23
2022-10-03T11:39:27.923Z,67.35
2022-10-03T11:40:27.903Z,66.87
2022-10-03T11:41:27.945Z,66.23
2022-10-03T11:42:27.930Z,68.80
2022-10-03T11:43:27.862Z,68.80
2022-10-03T11:44:27.823Z,67.19
2022-10-03T11:45:27.961Z,67.51
2022-10-03T11:46:27.846Z,66.06
2022-10-03T11:47:27.837Z,68.80
2022-10-03T11:48:27.769Z,67.51
2022-10-03T11:49:27.740Z,81.05
2022-10-03T11:50:27.797Z,67.03
2022-10-03T11:51:27.764Z,67.68
2022-10-03T11:52:27.696Z,68.16
2022-10-03T11:53:27.670Z,69.29
2022-10-03T11:54:32.545Z,68.80
2022-10-03T11:55:28.648Z,68.48
2022-10-03T11:56:27.659Z,67.35
2022-10-03T11:57:27.622Z,68.48
2022-10-03T11:58:27.594Z,67.19
2022-10-03T11:59:27.588Z,69.61
2022-10-03T12:00:27.614Z,68.96
2022-10-03T12:01:27.539Z,68.32
2022-10-03T12:02:27.566Z,69.45
2022-10-03T12:03:27.605Z,69.93
2022-10-03T12:04:27.494Z,68.80
2022-10-03T12:05:27.463Z,66.06
2022-10-03T12:06:27.491Z,68.00
2022-10-03T12:07:27.438Z,69.13
2022-10-03T12:08:27.431Z,68.16
2022-10-03T12:09:27.399Z,71.70
2022-10-03T12:10:27.434Z,67.35
2022-10-03T12:11:28.368Z,69.13
2022-10-03T12:12:27.352Z,67.84
2022-10-03T12:13:27.368Z,68.32
2022-10-03T12:14:27.323Z,68.96
2022-10-03T12:15:27.304Z,68.64
2022-10-03T12:16:27.370Z,68.96
2022-10-03T12:17:27.265Z,69.29
2022-10-03T12:18:27.264Z,66.71
2022-10-03T12:19:27.258Z,66.55
2022-10-03T12:20:27.251Z,68.96
2022-10-03T12:21:27.194Z,67.19
2022-10-03T12:22:27.216Z,66.87
2022-10-03T12:23:27.134Z,67.19
2022-10-03T12:24:27.145Z,68.32
2022-10-03T12:25:27.126Z,66.87
2022-10-03T12:26:27.145Z,69.77
2022-10-03T12:27:27.154Z,69.13
2022-10-03T12:28:27.109Z,68.32
2022-10-03T12:29:27.067Z,69.93
2022-10-03T12:30:27.030Z,67.35
2022-10-03T12:31:27.109Z,68.32
2022-10-03T12:32:27.001Z,67.19
2022-10-03T12:33:27.105Z,70.09
2022-10-03T12:34:26.952Z,69.13
2022-10-03T12:35:26.933Z,68.32
2022-10-03T12:36:26.985Z,68.16
2022-10-03T12:37:26.911Z,68.80
2022-10-03T12:38:26.897Z,69.29
2022-10-03T12:39:26.878Z,68.80
2022-10-03T12:40:26.842Z,69.61
2022-10-03T12:41:26.875Z,69.29
2022-10-03T12:42:26.831Z,68.80
2022-10-03T12:43:26.836Z,68.32
2022-10-03T12:44:26.796Z,69.13
2022-10-03T12:45:26.832Z,69.29
2022-10-03T12:46:26.838Z,68.16
2022-10-03T12:47:43.911Z,68.80
2022-10-03T12:48:28.719Z,69.13
2022-10-03T12:49:26.702Z,70.09
2022-10-03T12:50:26.704Z,67.84
2022-10-03T12:51:26.672Z,69.13
2022-10-03T12:52:26.657Z,68.64